Reston, Virginia
Current Conditions -  °F | °C
As of 6:52 PM on Saturday 22 Nov 2014 (Local Time) from KIAD Reporting Station
Few Clouds Few Clouds  
Wind Chill: 37°   Ceiling: Unl
Heat Index: 42°   Visibility: 10mi
Dew Point: 16°   Wind: 8mph
Humidity: 35%   Direction: 180°S
Pressure: 30.29"   Gusts: NA
Location:  38.96°N, 77.35°W
Report Text: KIAD 222352Z 18007KT 10SM FEW090 06/M09 A3029 RMK AO2 SLP259 T00561089 10094 20056 56006
Loading
Personal Weather Stations






























Interactive Weather Map New forecast layout! Learn more

10-Day Weather Forecast

Advertisements
Track Severe Weather on mobile